createdAt,value
2022-11-14T00:00:19.609Z,37.97
2022-11-14T00:03:08.675Z,42.17
2022-11-14T00:05:56.064Z,34.67
2022-11-14T00:08:46.654Z,32.17
2022-11-14T00:11:38.088Z,34.07
2022-11-14T00:14:28.092Z,33.83
2022-11-14T00:17:16.723Z,35.07
2022-11-14T00:20:09.633Z,31.43
2022-11-14T00:22:58.525Z,31.77
2022-11-14T00:28:49.905Z,29.60
2022-11-14T00:31:38.751Z,30.43
2022-11-14T00:34:25.005Z,29.30
2022-11-14T00:37:13.037Z,26.77
2022-11-14T00:40:01.779Z,25.93
2022-11-14T00:42:51.326Z,29.17
2022-11-14T00:45:37.620Z,30.57
2022-11-14T00:48:24.817Z,28.97
2022-11-14T00:51:11.269Z,30.83
2022-11-14T00:54:50.355Z,30.43
2022-11-14T00:57:40.865Z,28.20
2022-11-14T01:00:26.838Z,28.70
2022-11-14T01:03:15.163Z,29.93
2022-11-14T01:06:06.741Z,30.37
2022-11-14T01:08:52.681Z,29.30
2022-11-14T01:11:39.172Z,28.00
2022-11-14T01:14:24.833Z,30.30
2022-11-14T01:17:10.656Z,27.83
2022-11-14T01:20:01.045Z,30.17
2022-11-14T01:22:50.114Z,29.93
2022-11-14T01:25:39.605Z,30.77
2022-11-14T01:28:29.263Z,28.53
2022-11-14T01:31:20.078Z,28.23
2022-11-14T01:34:06.815Z,27.80
2022-11-14T01:37:03.125Z,28.63
2022-11-14T01:39:48.988Z,26.67
2022-11-14T01:42:37.651Z,28.43
2022-11-14T01:46:02.781Z,27.97
2022-11-14T01:48:49.450Z,29.63
2022-11-14T01:51:38.355Z,31.30
2022-11-14T01:54:26.397Z,26.80
2022-11-14T01:57:16.506Z,29.10
2022-11-14T02:00:04.479Z,28.70
2022-11-14T02:02:52.114Z,27.93
2022-11-14T02:05:39.826Z,27.83
2022-11-14T02:08:26.892Z,27.97
2022-11-14T02:11:20.445Z,27.60
2022-11-14T02:14:08.629Z,27.13
2022-11-14T02:17:27.239Z,28.20
2022-11-14T02:20:08.277Z,26.20
2022-11-14T02:23:30.979Z,24.97
2022-11-14T02:26:21.241Z,27.97
2022-11-14T02:29:08.979Z,25.20
2022-11-14T02:31:57.629Z,27.93
2022-11-14T02:34:48.763Z,26.77
2022-11-14T02:37:36.923Z,27.73
2022-11-14T02:40:26.370Z,29.00
2022-11-14T02:43:18.036Z,27.50
2022-11-14T02:46:05.806Z,29.30
2022-11-14T02:48:51.596Z,28.83
2022-11-14T02:51:38.643Z,30.33
2022-11-14T02:54:24.850Z,30.20
2022-11-14T02:57:10.827Z,27.87
2022-11-14T02:59:57.892Z,32.03
2022-11-14T03:02:44.444Z,33.70
2022-11-14T03:05:30.510Z,32.57
2022-11-14T03:08:18.571Z,32.77
2022-11-14T03:11:05.524Z,29.23
2022-11-14T03:13:52.357Z,33.30
2022-11-14T03:16:39.621Z,34.90
2022-11-14T03:19:27.029Z,31.33
2022-11-14T03:22:17.205Z,31.87
2022-11-14T03:25:03.155Z,30.20
2022-11-14T03:27:50.560Z,34.23
2022-11-14T03:30:39.932Z,31.13
2022-11-14T03:33:27.732Z,30.90
2022-11-14T03:36:13.945Z,34.57
2022-11-14T03:39:00.853Z,32.33
2022-11-14T03:41:50.190Z,35.27
2022-11-14T03:44:38.204Z,29.17
2022-11-14T03:47:24.019Z,31.57
2022-11-14T03:50:12.075Z,27.67
2022-11-14T03:53:00.219Z,31.27
2022-11-14T03:55:48.190Z,28.50
2022-11-14T03:58:33.960Z,26.87
2022-11-14T04:01:22.033Z,29.87
2022-11-14T04:04:08.317Z,28.50
2022-11-14T04:06:57.613Z,27.60
2022-11-14T04:09:49.945Z,25.57
2022-11-14T04:12:35.789Z,25.67
2022-11-14T04:15:23.085Z,26.17
2022-11-14T04:18:08.759Z,27.40
2022-11-14T04:20:54.486Z,26.57
2022-11-14T04:23:40.259Z,25.90
2022-11-14T04:26:26.426Z,23.00
2022-11-14T04:29:13.184Z,25.57
2022-11-14T04:32:05.971Z,24.63
2022-11-14T04:34:52.250Z,25.73
2022-11-14T04:37:44.192Z,26.10
2022-11-14T04:40:30.539Z,25.90
2022-11-14T04:43:17.659Z,25.10
2022-11-14T04:46:03.713Z,24.57
2022-11-14T04:48:49.712Z,23.93
2022-11-14T04:51:35.681Z,27.50
2022-11-14T04:54:21.383Z,26.90
2022-11-14T04:57:08.323Z,24.40
2022-11-14T04:59:56.397Z,22.83
2022-11-14T05:02:50.819Z,26.00
2022-11-14T05:05:41.770Z,23.70
2022-11-14T05:08:31.617Z,21.60
2022-11-14T05:11:28.085Z,20.27
2022-11-14T05:14:15.155Z,21.73
2022-11-14T05:17:00.928Z,20.37
2022-11-14T05:19:50.473Z,26.30
2022-11-14T05:22:37.644Z,19.73
2022-11-14T05:25:23.742Z,18.33
2022-11-14T05:28:09.504Z,19.10
2022-11-14T05:31:01.359Z,18.90
2022-11-14T05:33:50.142Z,20.07
2022-11-14T05:36:39.328Z,22.77
2022-11-14T05:39:25.310Z,21.73
2022-11-14T05:42:10.875Z,19.20
2022-11-14T05:44:56.786Z,20.17
2022-11-14T05:47:44.646Z,19.57
2022-11-14T05:50:31.065Z,20.27
2022-11-14T05:53:16.973Z,21.87
2022-11-14T05:56:06.276Z,21.67
2022-11-14T05:58:52.163Z,19.50
2022-11-14T06:01:40.624Z,18.23
2022-11-14T06:04:27.307Z,18.40
2022-11-14T06:07:19.751Z,21.10
2022-11-14T06:10:06.978Z,19.08
2022-11-14T06:12:53.285Z,23.20
2022-11-14T06:15:39.277Z,18.97
2022-11-14T06:18:25.037Z,19.93
2022-11-14T06:21:21.305Z,19.63
2022-11-14T06:24:07.200Z,22.33
2022-11-14T06:26:52.876Z,20.00
2022-11-14T06:29:38.582Z,22.83
2022-11-14T06:32:25.881Z,21.40
2022-11-14T06:35:14.322Z,21.63
2022-11-14T06:38:03.257Z,22.27
2022-11-14T06:40:49.332Z,23.40
2022-11-14T06:43:35.692Z,22.27
2022-11-14T06:46:21.922Z,22.20
2022-11-14T06:49:07.850Z,18.83
2022-11-14T06:51:54.156Z,19.33
2022-11-14T06:54:39.858Z,18.63
2022-11-14T06:57:25.796Z,17.10
2022-11-14T07:00:11.961Z,18.03
2022-11-14T07:02:57.907Z,19.50
2022-11-14T07:05:43.702Z,17.47
2022-11-14T07:08:29.834Z,17.90
2022-11-14T07:11:23.058Z,19.90
2022-11-14T07:14:09.970Z,17.33
2022-11-14T07:16:56.714Z,21.10
2022-11-14T07:19:42.742Z,21.03
2022-11-14T07:22:28.670Z,20.83
2022-11-14T07:25:14.889Z,20.23
2022-11-14T07:28:00.393Z,21.30
2022-11-14T07:30:46.565Z,20.60
2022-11-14T07:33:33.100Z,22.23
2022-11-14T07:36:18.911Z,18.57
2022-11-14T07:39:05.508Z,18.37
2022-11-14T07:41:51.194Z,18.97
2022-11-14T07:44:37.146Z,16.97
2022-11-14T07:47:23.051Z,16.07
2022-11-14T07:50:09.084Z,13.43
2022-11-14T07:52:56.200Z,15.80
2022-11-14T07:55:42.345Z,15.03
2022-11-14T07:58:29.648Z,12.67
2022-11-14T08:01:15.844Z,14.23
2022-11-14T08:04:02.125Z,13.57
2022-11-14T08:06:48.791Z,12.60
2022-11-14T08:09:34.600Z,13.23
2022-11-14T08:12:20.686Z,14.30
2022-11-14T08:15:07.721Z,14.57
2022-11-14T08:17:53.475Z,16.17
2022-11-14T08:20:39.308Z,15.17
2022-11-14T08:23:25.034Z,13.23
2022-11-14T08:26:10.916Z,15.70
2022-11-14T08:28:56.666Z,16.27
2022-11-14T08:31:42.762Z,16.50
2022-11-14T08:34:29.290Z,17.27
2022-11-14T08:37:15.295Z,20.27
2022-11-14T08:40:00.780Z,16.07
2022-11-14T08:42:46.594Z,17.50
2022-11-14T08:45:32.394Z,13.87
2022-11-14T08:48:18.479Z,14.43
2022-11-14T08:51:05.800Z,14.10
2022-11-14T08:53:52.446Z,13.80
2022-11-14T08:56:39.409Z,10.70
2022-11-14T08:59:25.211Z,10.70
2022-11-14T09:02:11.660Z,11.77
2022-11-14T09:04:57.751Z,10.57
2022-11-14T09:07:43.762Z,8.43
2022-11-14T09:10:29.566Z,9.57
2022-11-14T09:13:15.191Z,9.63
2022-11-14T09:16:01.056Z,7.47
2022-11-14T09:18:47.442Z,9.70
2022-11-14T09:21:33.112Z,12.23
2022-11-14T09:24:19.043Z,12.33
2022-11-14T09:27:04.941Z,9.40
2022-11-14T09:29:50.777Z,10.00
2022-11-14T09:32:36.793Z,10.10
2022-11-14T09:35:23.688Z,11.83
2022-11-14T09:38:11.315Z,11.63
2022-11-14T09:41:09.484Z,14.10
2022-11-14T09:44:20.119Z,15.23
2022-11-14T09:47:11.266Z,19.03
2022-11-14T09:50:02.530Z,20.17
2022-11-14T09:52:51.595Z,15.90
2022-11-14T09:55:37.682Z,16.03
2022-11-14T09:58:23.441Z,13.10
2022-11-14T10:01:15.391Z,11.00
2022-11-14T10:04:16.379Z,12.93
2022-11-14T10:07:22.603Z,12.17
2022-11-14T10:10:33.344Z,13.73
2022-11-14T10:13:41.696Z,11.83
2022-11-14T10:16:36.357Z,8.90
2022-11-14T10:19:42.364Z,8.43
2022-11-14T10:22:47.465Z,9.57
2022-11-14T10:25:48.901Z,13.97
2022-11-14T10:28:46.097Z,11.37
2022-11-14T10:31:40.683Z,12.20
2022-11-14T10:34:36.336Z,15.53
2022-11-14T10:37:32.485Z,15.57
2022-11-14T10:40:20.232Z,13.90
2022-11-14T10:43:42.598Z,15.63
2022-11-14T10:46:31.431Z,15.27
2022-11-14T10:49:20.044Z,15.37
2022-11-14T10:52:13.721Z,12.37
2022-11-14T10:55:01.234Z,12.53
2022-11-14T10:57:47.129Z,13.97
2022-11-14T11:00:33.082Z,15.87
2022-11-14T11:03:19.331Z,15.47
2022-11-14T11:06:06.149Z,15.87
2022-11-14T11:09:10.220Z,15.97
2022-11-14T11:11:57.710Z,19.43
2022-11-14T11:14:44.013Z,21.00
2022-11-14T11:17:37.125Z,21.43
2022-11-14T11:20:29.151Z,20.23
2022-11-14T11:23:20.237Z,19.33
2022-11-14T11:26:16.722Z,24.70
2022-11-14T11:29:04.087Z,24.87
2022-11-14T11:31:51.274Z,21.90
2022-11-14T11:34:37.143Z,21.50
2022-11-14T11:37:25.410Z,20.17
2022-11-14T11:40:16.204Z,16.00
2022-11-14T11:46:21.704Z,13.10
2022-11-14T11:49:12.490Z,14.43
2022-11-14T11:52:02.747Z,13.27
2022-11-14T11:55:06.715Z,12.63
2022-11-14T11:57:57.360Z,12.87
2022-11-14T12:00:45.370Z,14.13
2022-11-14T12:03:31.541Z,13.07
2022-11-14T12:06:25.401Z,17.30
2022-11-14T12:09:26.827Z,17.07
2022-11-14T12:12:26.453Z,17.47
2022-11-14T12:15:27.637Z,20.20
2022-11-14T12:18:13.383Z,22.47
2022-11-14T12:21:12.707Z,24.50
2022-11-14T12:24:05.328Z,29.93
2022-11-14T12:26:59.690Z,33.93
2022-11-14T12:29:48.559Z,37.73
2022-11-14T12:32:39.350Z,42.33
2022-11-14T12:35:26.948Z,44.10
2022-11-14T12:38:19.590Z,40.63
2022-11-14T12:41:07.515Z,37.93
2022-11-14T12:43:53.542Z,35.67
2022-11-14T12:47:13.736Z,36.07
2022-11-14T12:50:00.707Z,34.60
2022-11-14T12:52:57.485Z,33.57
2022-11-14T12:55:46.298Z,35.40
2022-11-14T12:58:51.134Z,39.00
2022-11-14T13:01:36.685Z,39.27
2022-11-14T13:04:25.712Z,45.23
2022-11-14T13:07:33.926Z,51.03
2022-11-14T13:10:37.595Z,52.40
2022-11-14T13:13:42.940Z,56.80
2022-11-14T13:16:50.762Z,51.30
2022-11-14T13:19:54.908Z,49.97
2022-11-14T13:22:41.842Z,56.63
2022-11-14T13:25:29.385Z,48.60
2022-11-14T13:28:34.457Z,48.90
2022-11-14T13:31:26.254Z,44.50
2022-11-14T13:34:31.294Z,46.93
2022-11-14T13:37:36.059Z,46.70
2022-11-14T13:40:25.365Z,50.30
2022-11-14T13:43:24.510Z,46.83
2022-11-14T13:46:30.062Z,47.77
2022-11-14T13:49:34.863Z,47.22
2022-11-14T13:52:20.716Z,48.13
2022-11-14T13:55:08.940Z,48.47
2022-11-14T13:57:57.893Z,47.80
2022-11-14T14:01:02.777Z,48.63
2022-11-14T14:03:58.173Z,60.50
2022-11-14T14:07:02.745Z,52.37
2022-11-14T14:10:09.264Z,55.83
2022-11-14T14:13:13.721Z,49.50
2022-11-14T14:16:16.076Z,49.93
2022-11-14T14:19:25.750Z,44.83
2022-11-14T14:22:21.461Z,42.60
2022-11-14T14:25:07.323Z,44.53
2022-11-14T14:27:56.505Z,44.23
2022-11-14T14:31:01.121Z,41.83
2022-11-14T14:33:48.268Z,40.37
2022-11-14T14:36:34.298Z,41.03
2022-11-14T14:39:21.826Z,39.40
2022-11-14T14:42:11.987Z,37.17
2022-11-14T14:44:58.488Z,40.23
2022-11-14T14:47:45.085Z,38.60
2022-11-14T14:50:34.775Z,38.77
2022-11-14T14:53:33.932Z,41.40
2022-11-14T14:56:21.500Z,28.80
2022-11-14T14:59:17.646Z,30.17
2022-11-14T15:02:03.579Z,28.10
2022-11-14T15:04:49.727Z,34.43
2022-11-14T15:07:36.666Z,26.57
2022-11-14T15:10:29.564Z,26.30
2022-11-14T15:13:16.997Z,25.10
2022-11-14T15:16:04.096Z,27.50
2022-11-14T15:18:51.491Z,29.63
2022-11-14T15:21:37.368Z,27.70
2022-11-14T15:24:26.571Z,26.40
2022-11-14T15:27:21.497Z,26.97
2022-11-14T15:30:08.689Z,29.80
2022-11-14T15:32:55.925Z,29.47
2022-11-14T15:35:41.850Z,29.97
2022-11-14T15:38:44.655Z,27.53
2022-11-14T15:41:32.066Z,28.83
2022-11-14T15:44:33.801Z,29.57
2022-11-14T15:47:22.241Z,27.93
2022-11-14T15:50:13.935Z,28.53
2022-11-14T15:53:01.727Z,27.67
2022-11-14T15:55:47.360Z,34.47
2022-11-14T15:58:34.684Z,28.53
2022-11-14T16:01:24.423Z,26.80
2022-11-14T16:04:16.322Z,26.27
2022-11-14T16:07:02.026Z,28.00
2022-11-14T16:09:48.036Z,29.90
2022-11-14T16:12:34.921Z,24.40
2022-11-14T16:15:21.940Z,24.70
2022-11-14T16:18:07.738Z,26.20
2022-11-14T16:21:01.778Z,23.73
2022-11-14T16:23:50.043Z,26.57
2022-11-14T16:26:36.552Z,24.90
2022-11-14T16:29:22.464Z,22.50
2022-11-14T16:32:10.367Z,22.47
2022-11-14T16:34:56.267Z,22.47
2022-11-14T16:37:42.255Z,24.67
2022-11-14T16:40:29.013Z,22.77
2022-11-14T16:43:15.654Z,21.43
2022-11-14T16:46:08.766Z,22.00
2022-11-14T16:48:55.485Z,23.87
2022-11-14T16:51:48.251Z,20.60
2022-11-14T16:54:36.228Z,22.07
2022-11-14T16:57:23.365Z,20.93
2022-11-14T17:00:13.582Z,23.90
2022-11-14T17:03:00.509Z,25.23
2022-11-14T17:05:47.697Z,19.33
2022-11-14T17:08:33.658Z,20.87
2022-11-14T17:11:19.430Z,20.67
2022-11-14T17:14:12.293Z,20.70
2022-11-14T17:17:04.978Z,23.40
2022-11-14T17:19:51.941Z,20.47
2022-11-14T17:22:37.465Z,22.30
2022-11-14T17:25:23.903Z,20.07
2022-11-14T17:28:09.701Z,22.37
2022-11-14T17:30:55.943Z,19.37
2022-11-14T17:33:41.773Z,20.13
2022-11-14T17:36:31.172Z,22.83
2022-11-14T17:39:17.529Z,22.50
2022-11-14T17:42:03.660Z,23.07
2022-11-14T17:44:58.503Z,25.40
2022-11-14T17:47:48.027Z,26.63
2022-11-14T17:50:37.889Z,26.60
2022-11-14T17:53:24.435Z,28.63
2022-11-14T17:56:18.020Z,29.60
2022-11-14T17:59:04.363Z,29.07
2022-11-14T18:01:51.338Z,26.13
2022-11-14T18:04:42.189Z,28.40
2022-11-14T18:07:30.329Z,27.83
2022-11-14T18:10:17.900Z,26.43
2022-11-14T18:13:05.160Z,27.73
2022-11-14T18:15:54.830Z,28.97
2022-11-14T18:18:41.291Z,28.10
2022-11-14T18:21:29.474Z,25.23
2022-11-14T18:24:15.749Z,26.13
2022-11-14T18:27:01.938Z,26.73
2022-11-14T18:29:48.693Z,26.37
2022-11-14T18:32:38.037Z,26.57
2022-11-14T18:35:24.309Z,26.93
2022-11-14T18:38:11.755Z,27.13
2022-11-14T18:40:59.010Z,26.97
2022-11-14T18:43:46.223Z,27.63
2022-11-14T18:46:37.098Z,30.00
2022-11-14T18:49:23.131Z,29.70
2022-11-14T18:52:12.865Z,27.30
2022-11-14T18:55:04.804Z,27.93
2022-11-14T18:57:51.933Z,29.63
2022-11-14T19:00:38.993Z,28.53
2022-11-14T19:03:25.276Z,27.80
2022-11-14T19:06:15.156Z,28.80
2022-11-14T19:09:05.540Z,30.33
2022-11-14T19:12:12.712Z,27.63
2022-11-14T19:15:00.602Z,27.93
2022-11-14T19:17:48.563Z,28.97
2022-11-14T19:20:34.908Z,29.23
2022-11-14T19:23:20.681Z,29.90
2022-11-14T19:26:07.438Z,29.27
2022-11-14T19:28:53.483Z,30.47
2022-11-14T19:31:39.865Z,32.07
2022-11-14T19:34:25.838Z,30.60
2022-11-14T19:37:11.883Z,31.53
2022-11-14T19:39:57.925Z,30.83
2022-11-14T19:42:43.536Z,31.07
2022-11-14T19:45:29.364Z,30.83
2022-11-14T19:48:15.200Z,34.63
2022-11-14T19:51:10.108Z,29.13
2022-11-14T19:54:01.219Z,33.03
2022-11-14T19:56:47.760Z,33.43
2022-11-14T19:59:33.554Z,35.47
2022-11-14T20:02:19.805Z,34.47
2022-11-14T20:05:06.284Z,34.80
2022-11-14T20:07:52.361Z,35.77
2022-11-14T20:10:47.890Z,36.63
2022-11-14T20:13:34.953Z,35.57
2022-11-14T20:20:17.018Z,40.70
2022-11-14T20:23:04.244Z,35.63
2022-11-14T20:25:53.892Z,35.03
2022-11-14T20:28:40.542Z,39.30
2022-11-14T20:31:29.551Z,36.73
2022-11-14T20:34:18.847Z,38.47
2022-11-14T20:37:11.307Z,40.23
2022-11-14T20:39:58.148Z,40.80
2022-11-14T20:42:48.536Z,40.30
2022-11-14T20:45:36.265Z,40.73
2022-11-14T20:48:28.614Z,40.40
2022-11-14T20:51:22.323Z,41.93
2022-11-14T20:54:09.947Z,39.77
2022-11-14T20:56:56.003Z,43.20
2022-11-14T20:59:43.607Z,42.67
2022-11-14T21:02:30.640Z,42.43
2022-11-14T21:05:17.759Z,42.57
2022-11-14T21:08:03.805Z,43.07
2022-11-14T21:10:53.234Z,44.20
2022-11-14T21:13:59.295Z,43.47
2022-11-14T21:16:46.181Z,43.10
2022-11-14T21:19:32.291Z,40.73
2022-11-14T21:22:18.163Z,42.63
2022-11-14T21:25:05.319Z,39.33
2022-11-14T21:27:55.824Z,41.60
2022-11-14T21:30:45.384Z,44.17
2022-11-14T21:33:35.170Z,41.47
2022-11-14T21:36:43.713Z,41.53
2022-11-14T21:39:29.323Z,42.27
2022-11-14T21:42:19.361Z,43.33
2022-11-14T21:45:07.679Z,42.30
2022-11-14T21:47:53.553Z,41.43
2022-11-14T21:50:41.553Z,41.03
2022-11-14T21:53:30.813Z,44.07
2022-11-14T21:56:24.841Z,43.23
2022-11-14T21:59:16.374Z,41.00
2022-11-14T22:02:23.617Z,39.87
2022-11-14T22:05:10.114Z,39.23
2022-11-14T22:07:56.211Z,38.57
2022-11-14T22:10:45.181Z,39.57
2022-11-14T22:13:32.140Z,41.93
2022-11-14T22:16:19.829Z,39.00
2022-11-14T22:19:07.309Z,41.13
2022-11-14T22:21:55.698Z,38.87
2022-11-14T22:24:41.858Z,40.90
2022-11-14T22:27:29.648Z,39.07
2022-11-14T22:30:18.305Z,36.83
2022-11-14T22:33:41.523Z,35.60
2022-11-14T22:36:39.540Z,35.20
2022-11-14T22:39:25.581Z,33.67
2022-11-14T22:42:11.563Z,32.23
2022-11-14T22:44:59.066Z,33.43
2022-11-14T22:47:46.711Z,33.67
2022-11-14T22:53:36.001Z,34.90
2022-11-14T22:56:24.985Z,31.43
2022-11-14T22:59:13.962Z,30.97
2022-11-14T23:02:00.889Z,31.43
2022-11-14T23:04:51.782Z,31.03
2022-11-14T23:07:40.114Z,32.83
2022-11-14T23:10:26.000Z,30.30
2022-11-14T23:13:14.600Z,30.33
2022-11-14T23:16:04.169Z,29.07
2022-11-14T23:18:51.145Z,30.23
2022-11-14T23:21:39.292Z,28.50
2022-11-14T23:24:38.613Z,30.60
2022-11-14T23:27:24.584Z,31.93
2022-11-14T23:30:10.761Z,33.30
2022-11-14T23:33:05.802Z,30.30
2022-11-14T23:35:52.095Z,30.83
2022-11-14T23:38:38.229Z,30.83
2022-11-14T23:41:25.979Z,33.63
2022-11-14T23:44:12.031Z,30.77
2022-11-14T23:46:58.490Z,33.00
2022-11-14T23:49:44.255Z,33.43
2022-11-14T23:52:30.136Z,35.97
2022-11-14T23:55:16.477Z,32.73
2022-11-14T23:58:02.133Z,33.80
